createdAt,value
2018-04-12T00:02:12.526Z,99090.49
2018-04-12T00:04:42.074Z,99100.23
2018-04-12T00:07:11.188Z,99125.95
2018-04-12T00:09:40.350Z,99123.78
2018-04-12T00:12:09.763Z,99121.53
2018-04-12T00:14:38.890Z,99134.85
2018-04-12T00:17:08.423Z,99138.84
2018-04-12T00:19:37.674Z,99131.77
2018-04-12T00:22:07.037Z,99146.91
2018-04-12T00:24:36.488Z,99158.48
2018-04-12T00:27:05.742Z,99161.14
2018-04-12T00:29:35.078Z,99182.45
2018-04-12T00:32:04.267Z,99190.93
2018-04-12T00:34:33.684Z,99195.00
2018-04-12T00:37:03.159Z,99198.08
2018-04-12T00:39:32.731Z,99205.27
2018-04-12T00:42:02.160Z,99212.42
2018-04-12T00:44:32.178Z,99215.58
2018-04-12T00:47:01.765Z,99215.16
2018-04-12T00:49:31.136Z,99221.81
2018-04-12T00:52:00.593Z,99220.98
2018-04-12T00:54:29.894Z,99225.95
2018-04-12T00:56:59.108Z,99232.61
2018-04-12T00:59:28.453Z,99225.95
2018-04-12T01:01:57.621Z,99215.80
2018-04-12T01:04:26.810Z,99206.56
2018-04-12T01:06:56.630Z,99202.56
2018-04-12T01:09:25.862Z,99214.13
2018-04-12T01:11:55.124Z,99209.72
2018-04-12T01:14:24.617Z,99217.70
2018-04-12T01:16:53.833Z,99212.95
2018-04-12T01:19:23.256Z,99217.44
2018-04-12T01:21:53.278Z,99212.11
2018-04-12T01:24:22.492Z,99202.90
2018-04-12T01:26:51.738Z,99202.48
2018-04-12T01:29:20.840Z,99197.16
2018-04-12T01:31:50.630Z,99195.41
2018-04-12T01:34:20.128Z,99199.47
2018-04-12T01:36:49.675Z,99186.58
2018-04-12T01:39:19.044Z,99183.08
2018-04-12T01:41:48.359Z,99182.66
2018-04-12T01:44:17.903Z,99182.24
2018-04-12T01:46:48.462Z,99175.59
2018-04-12T01:49:17.841Z,99174.33
2018-04-12T01:51:47.658Z,99172.09
2018-04-12T01:54:17.272Z,99176.99
2018-04-12T01:56:46.548Z,99168.66
2018-04-12T01:59:16.385Z,99163.34
2018-04-12T02:01:46.202Z,99165.16
2018-04-12T02:04:15.639Z,99169.23
2018-04-12T02:06:45.010Z,99170.07
2018-04-12T02:09:14.982Z,99166.98
2018-04-12T02:11:44.269Z,99167.98
2018-04-12T02:14:14.146Z,99170.64
2018-04-12T02:16:43.568Z,99169.80
2018-04-12T02:19:12.840Z,99171.21
2018-04-12T02:21:42.716Z,99174.29
2018-04-12T02:24:12.001Z,99187.19
2018-04-12T02:26:41.589Z,99189.95
2018-04-12T02:29:10.915Z,99198.86
2018-04-12T02:31:39.989Z,99203.76
2018-04-12T02:34:09.646Z,99204.25
2018-04-12T02:36:39.238Z,99201.17
2018-04-12T02:39:09.361Z,99201.66
2018-04-12T02:41:54.637Z,99200.34
2018-04-12T02:44:30.469Z,99191.02
2018-04-12T02:47:00.166Z,99197.33
2018-04-12T02:49:29.771Z,99216.04
2018-04-12T02:51:59.377Z,99223.11
2018-04-12T02:54:29.629Z,99218.28
2018-04-12T02:56:59.626Z,99216.11
2018-04-12T02:59:29.075Z,99216.11
2018-04-12T03:01:58.507Z,99218.36
2018-04-12T03:04:42.264Z,99215.28
2018-04-12T03:07:11.685Z,99211.36
2018-04-12T03:09:41.456Z,99210.94
2018-04-12T03:12:10.801Z,99215.05
2018-04-12T03:14:40.250Z,99218.20
2018-04-12T03:17:09.714Z,99224.85
2018-04-12T03:19:39.067Z,99228.01
2018-04-12T03:22:08.497Z,99223.59
2018-04-12T03:27:32.971Z,99238.31
2018-04-12T03:30:07.203Z,99244.13
2018-04-12T03:32:51.999Z,99256.53
2018-04-12T03:35:21.609Z,99249.03
2018-04-12T03:37:51.639Z,99258.42
2018-04-12T03:40:21.095Z,99260.67
2018-04-12T03:42:50.703Z,99257.59
2018-04-12T03:45:20.673Z,99270.90
2018-04-12T03:47:56.546Z,99285.12
2018-04-12T03:50:25.890Z,99289.61
2018-04-12T03:52:55.160Z,99302.91
2018-04-12T03:55:24.860Z,99304.32
2018-04-12T03:57:54.002Z,99293.75
2018-04-12T04:00:23.544Z,99298.16
2018-04-12T04:02:52.845Z,99287.09
2018-04-12T04:05:22.133Z,99279.18
2018-04-12T04:07:51.841Z,99285.03
2018-04-12T04:10:21.131Z,99276.63
2018-04-12T04:12:50.697Z,99278.86
2018-04-12T04:15:31.402Z,99293.51
2018-04-12T04:18:23.136Z,99300.66
2018-04-12T04:21:16.185Z,99277.61
2018-04-12T04:23:45.969Z,99259.47
2018-04-12T04:26:15.351Z,99259.97
2018-04-12T04:28:44.841Z,99246.23
2018-04-12T04:31:14.076Z,99250.23
2018-04-12T04:33:44.123Z,99239.58
2018-04-12T04:36:13.268Z,99221.86
2018-04-12T04:38:42.957Z,99207.72
2018-04-12T04:41:12.268Z,99203.30
2018-04-12T04:43:41.333Z,99208.20
2018-04-12T04:46:11.213Z,99194.06
2018-04-12T04:48:41.001Z,99177.67
2018-04-12T04:51:09.916Z,99184.83
2018-04-12T04:53:40.296Z,99185.73
2018-04-12T04:56:09.956Z,99185.73
2018-04-12T04:58:39.248Z,99177.33
2018-04-12T05:01:09.557Z,99173.84
2018-04-12T05:03:39.034Z,99172.50
2018-04-12T05:06:08.548Z,99167.18
2018-04-12T05:08:38.415Z,99170.34
2018-04-12T05:11:07.761Z,99162.35
2018-04-12T05:13:36.976Z,99156.53
2018-04-12T05:16:06.662Z,99149.57
2018-04-12T05:18:35.930Z,99152.65
2018-04-12T05:21:05.239Z,99146.48
2018-04-12T05:23:35.299Z,99149.98
2018-04-12T05:26:04.785Z,99138.50
2018-04-12T05:28:34.094Z,99133.67
2018-04-12T05:31:03.303Z,99128.77
2018-04-12T05:33:32.190Z,99121.77
2018-04-12T05:36:01.886Z,99118.62
2018-04-12T05:38:31.345Z,99111.13
2018-04-12T05:41:00.724Z,99110.79
2018-04-12T05:43:29.721Z,99112.53
2018-04-12T05:45:59.435Z,99113.87
2018-04-12T05:48:28.682Z,99113.03
2018-04-12T05:50:59.118Z,99121.51
2018-04-12T05:53:28.357Z,99119.69
2018-04-12T05:55:57.779Z,99117.94
2018-04-12T05:58:27.333Z,99117.94
2018-04-12T06:00:56.728Z,99121.02
2018-04-12T06:03:26.035Z,99124.17
2018-04-12T06:05:55.458Z,99120.25
2018-04-12T06:08:25.029Z,99120.25
2018-04-12T06:10:53.997Z,99124.66
2018-04-12T06:13:23.169Z,99126.48
2018-04-12T06:15:52.328Z,99119.38
2018-04-12T06:18:21.794Z,99121.62
2018-04-12T06:20:51.292Z,99115.39
2018-04-12T06:23:20.354Z,99118.13
2018-04-12T06:25:49.814Z,99115.47
2018-04-12T06:28:19.607Z,99114.63
2018-04-12T06:30:49.031Z,99112.39
2018-04-12T06:33:18.247Z,99107.98
2018-04-12T06:35:47.490Z,99107.06
2018-04-12T06:38:17.174Z,99104.41
2018-04-12T06:40:46.296Z,99103.07
2018-04-12T06:43:15.406Z,99106.65
2018-04-12T06:45:44.683Z,99102.23
2018-04-12T06:48:13.950Z,99094.67
2018-04-12T06:50:43.804Z,99091.59
2018-04-12T06:53:13.190Z,99088.09
2018-04-12T06:55:45.764Z,99091.09
2018-04-12T06:58:14.796Z,99088.02
2018-04-12T07:00:44.448Z,99083.19
2018-04-12T07:03:13.665Z,99080.03
2018-04-12T07:05:43.008Z,99077.80
2018-04-12T07:08:12.516Z,99078.21
2018-04-12T07:10:41.682Z,99072.89
2018-04-12T07:13:10.970Z,99066.73
2018-04-12T07:15:40.609Z,99075.97
2018-04-12T07:18:09.633Z,99068.41
2018-04-12T07:20:38.879Z,99062.25
2018-04-12T07:23:08.701Z,99062.25
2018-04-12T07:25:37.717Z,99063.08
2018-04-12T07:28:07.675Z,99061.33
2018-04-12T07:30:37.082Z,99048.02
2018-04-12T07:33:06.206Z,99047.11
2018-04-12T07:35:36.228Z,99048.45
2018-04-12T07:38:05.626Z,99046.70
2018-04-12T07:40:37.163Z,99041.79
2018-04-12T07:43:06.304Z,99031.22
2018-04-12T07:45:35.749Z,99036.55
2018-04-12T07:48:05.834Z,99034.72
2018-04-12T07:50:36.417Z,99025.41
2018-04-12T07:53:06.231Z,99025.41
2018-04-12T07:55:35.713Z,99022.33
2018-04-12T07:58:04.848Z,99014.77
2018-04-12T08:00:34.333Z,99014.27
2018-04-12T08:03:04.113Z,99004.12
2018-04-12T08:05:33.098Z,99011.14
2018-04-12T08:08:02.577Z,99005.33
2018-04-12T08:10:32.106Z,99007.07
2018-04-12T08:13:01.499Z,98998.67
2018-04-12T08:15:32.031Z,98996.01
2018-04-12T08:18:01.618Z,98993.77
2018-04-12T08:20:41.253Z,98992.78
2018-04-12T08:23:11.003Z,98993.69
2018-04-12T08:25:40.987Z,98981.72
2018-04-12T08:28:10.699Z,98982.13
2018-04-12T08:30:42.616Z,98983.05
2018-04-12T08:33:12.076Z,98979.89
2018-04-12T08:35:41.345Z,98977.23
2018-04-12T08:38:10.733Z,98977.64
2018-04-12T08:40:40.761Z,98963.92
2018-04-12T08:43:10.625Z,98959.02
2018-04-12T08:45:40.393Z,98963.84
2018-04-12T08:48:10.670Z,98952.36
2018-04-12T08:50:40.858Z,98955.78
2018-04-12T08:53:10.257Z,98948.22
2018-04-12T08:55:40.126Z,98949.05
2018-04-12T08:58:09.582Z,98941.06
2018-04-12T09:00:39.850Z,98945.37
2018-04-12T09:03:09.451Z,98934.30
2018-04-12T09:05:39.086Z,98928.98
2018-04-12T09:08:08.601Z,98927.58
2018-04-12T09:10:38.568Z,98925.33
2018-04-12T09:13:08.385Z,98923.92
2018-04-12T09:15:39.269Z,98919.85
2018-04-12T09:18:09.730Z,98906.55
2018-04-12T09:20:39.725Z,98903.39
2018-04-12T09:23:10.150Z,98898.06
2018-04-12T09:25:39.487Z,98894.07
2018-04-12T09:28:10.982Z,98880.77
2018-04-12T09:30:41.023Z,98879.77
2018-04-12T09:33:11.292Z,98872.70
2018-04-12T09:35:43.582Z,98866.31
2018-04-12T09:38:13.579Z,98864.78
2018-04-12T09:40:44.378Z,98858.97
2018-04-12T09:43:15.561Z,98850.41
2018-04-12T09:45:48.957Z,98852.83
2018-04-12T09:48:23.623Z,98855.91
2018-04-12T09:50:57.426Z,98844.77
2018-04-12T09:53:31.137Z,98840.28
2018-04-12T09:56:04.360Z,98844.19
2018-04-12T09:58:38.214Z,98834.77
2018-04-12T10:01:15.769Z,98836.52
2018-04-12T10:03:53.281Z,98831.61
2018-04-12T10:06:28.500Z,98822.29
2018-04-12T10:12:02.030Z,98818.63
2018-04-12T10:14:38.301Z,98812.39
2018-04-12T10:17:12.184Z,98808.41
2018-04-12T10:19:47.730Z,98809.73
2018-04-12T10:22:22.851Z,98801.18
2018-04-12T10:24:57.924Z,98800.33
2018-04-12T10:27:31.559Z,98794.77
2018-04-12T10:30:06.673Z,98789.28
2018-04-12T10:32:42.236Z,98784.72
2018-04-12T10:35:15.118Z,98777.04
2018-04-12T10:37:57.666Z,98773.16
2018-04-12T10:40:35.907Z,98767.55
2018-04-12T10:43:13.092Z,98769.23
2018-04-12T10:45:52.720Z,98768.83
2018-04-12T10:48:29.002Z,98768.55
2018-04-12T10:51:06.911Z,98768.47
2018-04-12T10:53:41.660Z,98756.75
2018-04-12T10:56:14.459Z,98763.33
2018-04-12T10:58:48.095Z,98762.75
2018-04-12T11:01:27.908Z,98760.42
2018-04-12T11:04:02.587Z,98759.81
2018-04-12T11:06:38.239Z,98750.49
2018-04-12T11:09:11.784Z,98747.25
2018-04-12T11:11:45.040Z,98748.01
2018-04-12T11:14:18.306Z,98741.77
2018-04-12T11:16:51.545Z,98741.27
2018-04-12T11:19:27.580Z,98744.27
2018-04-12T11:22:01.042Z,98738.44
2018-04-12T11:24:34.404Z,98736.62
2018-04-12T11:27:07.293Z,98733.34
2018-04-12T11:29:37.091Z,98736.42
2018-04-12T11:32:06.472Z,98738.50
2018-04-12T11:34:35.608Z,98731.35
2018-04-12T11:37:04.776Z,98732.19
2018-04-12T11:39:34.150Z,98729.44
2018-04-12T11:42:02.810Z,98734.27
2018-04-12T11:44:31.483Z,98728.86
2018-04-12T11:47:00.677Z,98731.44
2018-04-12T11:49:32.574Z,98728.78
2018-04-12T11:52:02.641Z,98733.19
2018-04-12T11:54:31.732Z,98726.95
2018-04-12T11:57:00.962Z,98733.00
2018-04-12T11:59:30.132Z,98729.42
2018-04-12T12:01:58.961Z,98727.59
2018-04-12T12:04:27.956Z,98721.34
2018-04-12T12:06:56.873Z,98722.68
2018-04-12T12:09:26.138Z,98724.84
2018-04-12T12:11:55.146Z,98729.25
2018-04-12T12:14:24.230Z,98726.09
2018-04-12T12:16:53.140Z,98736.25
2018-04-12T12:19:22.160Z,98737.50
2018-04-12T12:21:51.509Z,98736.92
2018-04-12T12:24:20.782Z,98738.25
2018-04-12T12:26:50.103Z,98738.17
2018-04-12T12:29:19.309Z,98739.50
2018-04-12T12:31:48.376Z,98738.91
2018-04-12T12:34:18.310Z,98735.25
2018-04-12T12:36:47.163Z,98734.67
2018-04-12T12:39:16.143Z,98736.84
2018-04-12T12:41:45.237Z,98749.57
2018-04-12T12:44:14.619Z,98749.14
2018-04-12T12:46:44.015Z,98748.73
2018-04-12T12:49:12.693Z,98756.97
2018-04-12T12:51:41.784Z,98758.64
2018-04-12T12:54:10.809Z,98768.30
2018-04-12T12:56:39.886Z,98767.80
2018-04-12T12:59:08.678Z,98773.95
2018-04-12T13:01:37.876Z,98772.02
2018-04-12T13:04:06.997Z,98777.75
2018-04-12T13:06:36.008Z,98783.91
2018-04-12T13:09:05.343Z,98778.59
2018-04-12T13:11:34.739Z,98775.43
2018-04-12T13:14:03.632Z,98774.02
2018-04-12T13:16:32.704Z,98783.75
2018-04-12T13:19:01.597Z,98786.84
2018-04-12T13:24:24.700Z,98786.34
2018-04-12T13:26:53.780Z,98795.16
2018-04-12T13:29:22.972Z,98795.99
2018-04-12T13:31:52.205Z,98800.91
2018-04-12T13:34:21.843Z,98805.31
2018-04-12T13:36:51.029Z,98813.22
2018-04-12T13:39:19.988Z,98814.97
2018-04-12T13:41:49.021Z,98809.64
2018-04-12T13:44:18.557Z,98815.27
2018-04-12T13:46:47.482Z,98807.81
2018-04-12T13:49:16.300Z,98812.30
2018-04-12T13:51:45.493Z,98815.80
2018-04-12T13:54:14.774Z,98816.30
2018-04-12T13:56:43.951Z,98827.26
2018-04-12T13:59:12.966Z,98822.80
2018-04-12T14:01:42.396Z,98829.38
2018-04-12T14:04:11.908Z,98832.45
2018-04-12T14:06:41.189Z,98838.62
2018-04-12T14:09:10.630Z,98839.88
2018-04-12T14:11:39.936Z,98850.52
2018-04-12T14:14:09.605Z,98858.85
2018-04-12T14:16:38.718Z,98856.61
2018-04-12T14:19:07.801Z,98860.10
2018-04-12T14:21:37.077Z,98861.02
2018-04-12T14:31:06.024Z,98869.84
2018-04-12T14:33:35.334Z,98864.52
2018-04-12T14:36:05.238Z,98872.09
2018-04-12T14:38:34.708Z,98876.00
2018-04-12T14:41:04.309Z,98880.91
2018-04-12T14:43:33.427Z,98886.50
2018-04-12T14:46:02.343Z,98885.66
2018-04-12T14:48:31.393Z,98888.74
2018-04-12T14:51:00.477Z,98896.63
2018-04-12T14:55:55.656Z,98900.73
2018-04-12T14:58:24.629Z,98902.89
2018-04-12T15:00:53.686Z,98905.22
2018-04-12T15:03:22.967Z,98912.72
2018-04-12T15:05:52.370Z,98916.22
2018-04-12T15:08:21.638Z,98924.02
2018-04-12T15:10:51.709Z,98923.18
2018-04-12T15:13:21.175Z,98927.09
2018-04-12T15:15:50.420Z,98929.84
2018-04-12T15:18:19.678Z,98936.42
2018-04-12T15:20:48.581Z,98940.41
2018-04-12T15:23:17.787Z,98943.49
2018-04-12T15:25:47.376Z,98943.91
2018-04-12T15:28:16.379Z,98944.91
2018-04-12T15:30:45.374Z,98943.08
2018-04-12T15:33:14.488Z,98947.57
2018-04-12T15:35:43.544Z,98944.41
2018-04-12T15:38:13.043Z,98944.41
2018-04-12T15:40:42.365Z,98942.16
2018-04-12T15:43:11.704Z,98943.00
2018-04-12T15:45:41.015Z,98939.00
2018-04-12T15:48:11.945Z,98945.16
2018-04-12T15:50:41.172Z,98943.83
2018-04-12T15:53:10.604Z,98947.83
2018-04-12T15:55:41.531Z,98944.67
2018-04-12T15:58:10.800Z,98934.09
2018-04-12T16:00:43.228Z,98941.09
2018-04-12T16:03:13.201Z,98942.08
2018-04-12T16:05:42.476Z,98950.08
2018-04-12T16:08:14.539Z,98953.99
2018-04-12T16:10:43.881Z,98955.82
2018-04-12T16:13:13.740Z,98951.91
2018-04-12T16:15:43.188Z,98960.73
2018-04-12T16:18:13.049Z,98970.89
2018-04-12T16:20:42.286Z,98970.47
2018-04-12T16:23:14.783Z,98968.30
2018-04-12T16:25:46.740Z,98973.22
2018-04-12T16:28:16.498Z,98977.13
2018-04-12T16:30:46.589Z,98970.05
2018-04-12T16:33:16.444Z,98967.39
2018-04-12T16:35:46.032Z,98977.55
2018-04-12T16:38:16.980Z,98975.38
2018-04-12T16:40:46.489Z,98980.63
2018-04-12T16:43:16.302Z,98982.46
2018-04-12T16:45:45.823Z,98990.87
2018-04-12T16:48:16.600Z,98992.20
2018-04-12T16:50:46.378Z,98987.79
2018-04-12T16:53:15.951Z,98991.03
2018-04-12T16:55:45.944Z,98983.45
2018-04-12T16:58:15.809Z,98980.79
2018-04-12T17:00:45.484Z,98972.80
2018-04-12T17:03:15.975Z,98975.55
2018-04-12T17:05:45.172Z,98976.95
2018-04-12T17:08:14.609Z,98978.70
2018-04-12T17:10:44.156Z,98983.80
2018-04-12T17:13:13.916Z,98988.30
2018-04-12T17:15:43.829Z,98990.88
2018-04-12T17:18:13.566Z,98998.80
2018-04-12T17:20:43.183Z,99007.70
2018-04-12T17:23:12.712Z,99004.20
2018-04-12T17:25:42.065Z,99005.03
2018-04-12T17:28:11.820Z,99013.02
2018-04-12T17:30:41.355Z,99009.83
2018-04-12T17:33:11.088Z,99011.58
2018-04-12T17:35:40.980Z,99013.33
2018-04-12T17:38:10.926Z,99018.66
2018-04-12T17:40:40.828Z,99020.83
2018-04-12T17:43:10.732Z,99022.16
2018-04-12T17:45:40.819Z,99022.58
2018-04-12T17:48:10.219Z,99023.91
2018-04-12T17:50:39.389Z,99020.33
2018-04-12T17:53:08.608Z,99015.00
2018-04-12T17:55:37.648Z,99015.84
2018-04-12T17:58:07.052Z,99015.00
2018-04-12T18:00:36.298Z,99012.34
2018-04-12T18:03:05.769Z,99020.33
2018-04-12T18:05:35.259Z,99011.84
2018-04-12T18:08:04.389Z,99002.10
2018-04-12T18:10:34.125Z,99004.84
2018-04-12T18:13:03.680Z,98990.54
2018-04-12T18:15:33.617Z,98992.11
2018-04-12T18:18:03.135Z,98986.36
2018-04-12T18:20:33.123Z,98990.28
2018-04-12T18:23:02.215Z,98993.28
2018-04-12T18:25:32.084Z,98990.54
2018-04-12T18:28:01.708Z,98996.20
2018-04-12T18:30:31.159Z,98993.05
2018-04-12T18:33:01.499Z,98993.46
2018-04-12T18:35:31.062Z,98990.80
2018-04-12T18:38:00.439Z,98988.94
2018-04-12T18:40:30.451Z,98988.02
2018-04-12T18:43:00.009Z,98988.94
2018-04-12T18:45:29.593Z,98991.11
2018-04-12T18:47:59.079Z,98990.19
2018-04-12T18:50:28.706Z,98986.27
2018-04-12T18:52:58.583Z,98984.03
2018-04-12T18:55:28.382Z,98979.62
2018-04-12T18:57:58.413Z,98972.95
2018-04-12T19:00:28.422Z,98973.06
2018-04-12T19:02:58.123Z,98970.41
2018-04-12T19:05:27.689Z,98968.16
2018-04-12T19:07:58.290Z,98971.32
2018-04-12T19:10:27.787Z,98972.16
2018-04-12T19:12:57.567Z,98968.66
2018-04-12T19:15:27.165Z,98964.32
2018-04-12T19:17:56.976Z,98967.41
2018-04-12T19:20:26.530Z,98964.73
2018-04-12T19:22:56.114Z,98966.98
2018-04-12T19:25:25.505Z,98970.98
2018-04-12T19:27:55.217Z,98968.31
2018-04-12T19:30:24.907Z,98961.24
2018-04-12T19:32:54.183Z,98958.58
2018-04-12T19:35:23.353Z,98948.08
2018-04-12T19:37:53.077Z,98948.92
2018-04-12T19:40:23.140Z,98946.25
2018-04-12T19:42:52.865Z,98944.84
2018-04-12T19:45:22.227Z,98944.01
2018-04-12T19:47:51.705Z,98938.27
2018-04-12T19:50:21.541Z,98930.27
2018-04-12T19:52:50.565Z,98927.61
2018-04-12T19:55:20.097Z,98924.52
2018-04-12T19:57:49.172Z,98927.69
2018-04-12T20:00:18.266Z,98919.36
2018-04-12T20:02:47.768Z,98917.19
2018-04-12T20:05:16.776Z,98917.61
2018-04-12T20:07:45.897Z,98914.95
2018-04-12T20:10:15.235Z,98914.87
2018-04-12T20:12:44.389Z,98909.62
2018-04-12T20:15:13.920Z,98909.62
2018-04-12T20:17:42.996Z,98910.95
2018-04-12T20:20:12.364Z,98911.37
2018-04-12T20:22:41.512Z,98906.45
2018-04-12T20:25:11.018Z,98901.13
2018-04-12T20:27:40.505Z,98898.05
2018-04-12T20:30:09.800Z,98898.55
2018-04-12T20:32:39.363Z,98896.87
2018-04-12T20:35:08.707Z,98896.37
2018-04-12T20:37:37.937Z,98889.80
2018-04-12T20:40:07.040Z,98894.27
2018-04-12T20:42:36.049Z,98900.45
2018-04-12T20:45:05.466Z,98896.92
2018-04-12T20:47:34.575Z,98893.84
2018-04-12T20:50:03.577Z,98898.25
2018-04-12T20:52:33.035Z,98896.51
2018-04-12T20:55:02.446Z,98894.80
2018-04-12T20:57:31.623Z,98894.88
2018-04-12T21:00:00.542Z,98905.52
2018-04-12T21:02:29.639Z,98903.77
2018-04-12T21:04:58.897Z,98900.70
2018-04-12T21:07:27.839Z,98900.77
2018-04-12T21:09:58.375Z,98904.27
2018-04-12T21:12:27.500Z,98906.52
2018-04-12T21:14:56.477Z,98906.52
